createdAt,value
2023-03-09T00:01:55.974Z,13.65
2023-03-09T00:04:26.171Z,13.88
2023-03-09T00:06:55.879Z,13.52
2023-03-09T00:09:25.790Z,13.50
2023-03-09T00:11:55.575Z,14.05
2023-03-09T00:14:25.843Z,13.65
2023-03-09T00:16:56.349Z,14.32
2023-03-09T00:19:31.540Z,14.45
2023-03-09T00:21:59.112Z,14.75
2023-03-09T00:24:29.291Z,15.10
2023-03-09T00:27:02.634Z,14.65
2023-03-09T00:29:33.055Z,15.32
2023-03-09T00:32:06.602Z,14.25
2023-03-09T00:34:36.015Z,13.85
2023-03-09T00:37:06.110Z,14.40
2023-03-09T00:39:35.819Z,14.77
2023-03-09T00:42:08.718Z,16.15
2023-03-09T00:44:39.178Z,16.08
2023-03-09T00:47:09.288Z,15.15
2023-03-09T00:49:39.838Z,15.73
2023-03-09T00:52:10.045Z,15.02
2023-03-09T00:54:40.138Z,15.15
2023-03-09T00:57:10.256Z,15.00
2023-03-09T00:59:45.868Z,15.63
2023-03-09T01:02:16.545Z,15.13
2023-03-09T01:04:48.465Z,16.08
2023-03-09T01:07:19.557Z,17.23
2023-03-09T01:09:50.245Z,16.13
2023-03-09T01:12:20.389Z,15.13
2023-03-09T01:14:55.084Z,16.10
2023-03-09T01:17:25.556Z,15.60
2023-03-09T01:19:55.678Z,16.42
2023-03-09T01:22:25.754Z,17.35
2023-03-09T01:24:56.098Z,17.02
2023-03-09T01:27:26.318Z,17.67
2023-03-09T01:29:56.503Z,16.40
2023-03-09T01:32:27.036Z,15.73
2023-03-09T01:34:57.687Z,17.60
2023-03-09T01:37:27.839Z,17.05
2023-03-09T01:39:58.195Z,16.38
2023-03-09T01:42:28.400Z,17.15
2023-03-09T01:45:19.735Z,17.73
2023-03-09T01:47:50.756Z,16.63
2023-03-09T01:50:35.580Z,20.35
2023-03-09T01:53:18.330Z,17.88
2023-03-09T01:55:55.580Z,18.85
2023-03-09T01:58:31.743Z,19.08
2023-03-09T02:01:00.979Z,20.35
2023-03-09T02:03:48.174Z,19.75
2023-03-09T02:06:22.761Z,19.58
2023-03-09T02:09:32.739Z,19.15
2023-03-09T02:12:04.658Z,19.55
2023-03-09T02:14:35.191Z,22.02
2023-03-09T02:17:05.270Z,20.33
2023-03-09T02:20:14.969Z,22.25
2023-03-09T02:22:49.482Z,20.13
2023-03-09T02:25:41.855Z,22.45
2023-03-09T02:28:12.413Z,22.77
2023-03-09T02:30:49.492Z,19.88
2023-03-09T02:33:31.690Z,21.80
2023-03-09T02:36:03.297Z,19.48
2023-03-09T02:38:33.796Z,19.90
2023-03-09T02:41:09.840Z,20.98
2023-03-09T02:43:54.167Z,21.83
2023-03-09T02:46:24.429Z,20.95
2023-03-09T02:48:55.309Z,22.42
2023-03-09T02:51:25.395Z,21.52
2023-03-09T02:53:55.482Z,21.65
2023-03-09T02:56:25.605Z,20.65
2023-03-09T02:58:55.825Z,20.70
2023-03-09T03:01:26.004Z,22.15
2023-03-09T03:03:56.433Z,22.08
2023-03-09T03:06:26.609Z,23.15
2023-03-09T03:08:56.787Z,21.83
2023-03-09T03:11:26.955Z,22.17
2023-03-09T03:13:57.186Z,20.77
2023-03-09T03:16:27.342Z,22.67
2023-03-09T03:18:57.447Z,22.55
2023-03-09T03:21:27.671Z,21.88
2023-03-09T03:23:57.915Z,21.20
2023-03-09T03:26:28.136Z,22.40
2023-03-09T03:28:58.288Z,23.02
2023-03-09T03:31:28.362Z,21.48
2023-03-09T03:33:58.521Z,22.85
2023-03-09T03:36:28.666Z,22.88
2023-03-09T03:38:58.777Z,23.70
2023-03-09T03:41:28.968Z,22.88
2023-03-09T03:43:59.227Z,23.48
2023-03-09T03:46:29.384Z,22.90
2023-03-09T03:48:59.522Z,25.10
2023-03-09T03:51:29.657Z,22.90
2023-03-09T03:53:59.943Z,24.23
2023-03-09T03:56:29.995Z,25.50
2023-03-09T03:59:00.074Z,25.00
2023-03-09T04:01:30.352Z,23.55
2023-03-09T04:04:00.655Z,25.77
2023-03-09T04:06:33.244Z,23.10
2023-03-09T04:09:06.021Z,22.70
2023-03-09T04:11:36.768Z,24.27
2023-03-09T04:14:06.865Z,23.27
2023-03-09T04:16:39.517Z,22.25
2023-03-09T04:19:08.611Z,23.95
2023-03-09T04:21:36.777Z,24.15
2023-03-09T04:24:06.053Z,22.95
2023-03-09T04:26:34.283Z,22.20
2023-03-09T04:29:02.045Z,22.02
2023-03-09T04:31:30.389Z,21.77
2023-03-09T04:33:58.937Z,20.48
2023-03-09T04:36:28.130Z,22.55
2023-03-09T04:38:55.909Z,22.15
2023-03-09T04:41:23.014Z,23.25
2023-03-09T04:43:51.396Z,18.77
2023-03-09T04:46:19.888Z,20.88
2023-03-09T04:48:48.293Z,20.40
2023-03-09T04:51:16.870Z,22.10
2023-03-09T04:53:45.064Z,20.45
2023-03-09T04:56:14.077Z,22.45
2023-03-09T04:58:41.904Z,21.67
2023-03-09T05:01:10.368Z,20.25
2023-03-09T05:03:39.376Z,21.38
2023-03-09T05:06:07.874Z,21.95
2023-03-09T05:08:36.221Z,23.58
2023-03-09T05:11:04.180Z,22.45
2023-03-09T05:13:32.421Z,20.85
2023-03-09T05:16:05.322Z,22.77
2023-03-09T05:18:37.566Z,20.10
2023-03-09T05:21:09.914Z,19.70
2023-03-09T05:23:40.008Z,20.77
2023-03-09T05:26:11.537Z,23.02
2023-03-09T05:28:41.929Z,21.10
2023-03-09T05:31:15.169Z,20.98
2023-03-09T05:33:45.300Z,21.27
2023-03-09T05:36:27.201Z,22.38
2023-03-09T05:38:58.496Z,22.73
2023-03-09T05:41:28.573Z,22.55
2023-03-09T05:44:02.235Z,20.75
2023-03-09T05:46:32.947Z,23.55
2023-03-09T05:49:00.762Z,25.48
2023-03-09T05:51:29.477Z,23.08
2023-03-09T05:53:57.603Z,23.20
2023-03-09T05:56:26.026Z,23.77
2023-03-09T05:58:57.775Z,23.23
2023-03-09T06:01:31.342Z,24.98
2023-03-09T06:04:00.849Z,25.30
2023-03-09T06:06:31.387Z,24.88
2023-03-09T06:09:00.558Z,26.40
2023-03-09T06:11:30.872Z,26.63
2023-03-09T06:14:00.749Z,26.15
2023-03-09T06:16:30.457Z,25.88
2023-03-09T06:18:58.066Z,26.90
2023-03-09T06:21:27.890Z,24.75
2023-03-09T06:23:59.040Z,25.13
2023-03-09T06:26:29.090Z,25.90
2023-03-09T06:28:58.390Z,27.55
2023-03-09T06:31:28.248Z,26.27
2023-03-09T06:33:58.715Z,26.45
2023-03-09T06:36:28.414Z,24.25
2023-03-09T06:38:58.116Z,24.33
2023-03-09T06:41:32.870Z,27.13
2023-03-09T06:44:02.278Z,25.92
2023-03-09T06:46:32.272Z,25.27
2023-03-09T06:49:02.040Z,26.70
2023-03-09T06:51:31.966Z,27.55
2023-03-09T06:54:02.823Z,27.00
2023-03-09T06:56:31.707Z,27.50
2023-03-09T06:59:01.385Z,27.83
2023-03-09T07:01:32.397Z,27.15
2023-03-09T07:04:02.373Z,27.63
2023-03-09T07:06:31.922Z,25.77
2023-03-09T07:09:01.955Z,25.00
2023-03-09T07:11:32.136Z,26.17
2023-03-09T07:14:01.915Z,25.55
2023-03-09T07:16:31.801Z,24.50
2023-03-09T07:19:02.045Z,24.27
2023-03-09T07:21:33.216Z,24.85
2023-03-09T07:24:02.400Z,22.85
2023-03-09T07:26:31.792Z,23.05
2023-03-09T07:29:02.325Z,24.63
2023-03-09T07:31:32.881Z,23.92
2023-03-09T07:34:02.850Z,23.27
2023-03-09T07:36:32.406Z,23.83
2023-03-09T07:39:01.976Z,23.35
2023-03-09T07:41:31.906Z,23.98
2023-03-09T07:44:01.223Z,22.73
2023-03-09T07:46:31.134Z,24.00
2023-03-09T07:49:00.847Z,21.65
2023-03-09T07:51:31.034Z,23.42
2023-03-09T07:54:01.127Z,22.58
2023-03-09T07:56:30.810Z,21.35
2023-03-09T07:59:00.875Z,21.55
2023-03-09T08:01:31.517Z,21.50
2023-03-09T08:04:01.114Z,19.67
2023-03-09T08:06:30.866Z,20.98
2023-03-09T08:09:01.046Z,19.50
2023-03-09T08:11:29.656Z,19.50
2023-03-09T08:13:57.448Z,22.10
2023-03-09T08:16:26.132Z,21.05
2023-03-09T08:18:54.737Z,20.77
2023-03-09T08:21:22.777Z,21.00
2023-03-09T08:23:51.727Z,20.92
2023-03-09T08:26:24.151Z,20.17
2023-03-09T08:28:56.500Z,20.13
2023-03-09T08:31:26.290Z,19.88
2023-03-09T08:33:56.129Z,19.92
2023-03-09T08:36:26.375Z,20.20
2023-03-09T08:38:56.734Z,20.50
2023-03-09T08:41:26.478Z,20.63
2023-03-09T08:43:57.317Z,19.75
2023-03-09T08:46:28.052Z,21.23
2023-03-09T08:48:57.388Z,19.85
2023-03-09T08:51:29.590Z,21.65
2023-03-09T08:53:59.608Z,22.42
2023-03-09T08:56:29.292Z,21.20
2023-03-09T08:58:59.050Z,21.92
2023-03-09T09:01:28.848Z,21.63
2023-03-09T09:03:59.186Z,22.42
2023-03-09T09:06:29.949Z,22.63
2023-03-09T09:09:00.120Z,20.90
2023-03-09T09:11:31.133Z,22.40
2023-03-09T09:14:01.061Z,21.08
2023-03-09T09:16:31.006Z,22.98
2023-03-09T09:19:01.194Z,22.77
2023-03-09T09:21:31.937Z,22.77
2023-03-09T09:24:01.886Z,22.75
2023-03-09T09:26:32.062Z,22.10
2023-03-09T09:29:02.859Z,22.25
2023-03-09T09:31:32.593Z,22.83
2023-03-09T09:34:02.771Z,21.23
2023-03-09T09:36:30.811Z,22.60
2023-03-09T09:38:59.186Z,23.58
2023-03-09T09:41:56.896Z,25.08
2023-03-09T09:44:39.906Z,26.10
2023-03-09T09:47:29.331Z,24.80
2023-03-09T09:50:03.138Z,23.50
2023-03-09T09:52:47.997Z,25.73
2023-03-09T09:55:38.484Z,24.70
2023-03-09T09:59:06.887Z,27.08
2023-03-09T10:02:04.287Z,24.70
2023-03-09T10:04:53.340Z,25.10
2023-03-09T10:07:26.677Z,25.40
2023-03-09T10:10:11.973Z,26.30
2023-03-09T10:12:44.996Z,25.70
2023-03-09T10:15:39.391Z,26.85
2023-03-09T10:18:29.939Z,26.83
2023-03-09T10:21:02.603Z,25.15
2023-03-09T10:23:36.019Z,26.85
2023-03-09T10:26:42.175Z,23.15
2023-03-09T10:29:38.682Z,25.15
2023-03-09T10:32:27.186Z,25.65
2023-03-09T10:35:25.681Z,25.43
2023-03-09T10:37:56.569Z,23.17
2023-03-09T10:40:44.040Z,23.98
2023-03-09T10:43:25.856Z,24.60
2023-03-09T10:46:21.624Z,24.98
2023-03-09T10:49:15.863Z,24.40
2023-03-09T10:52:01.862Z,25.83
2023-03-09T10:54:41.259Z,25.80
2023-03-09T10:57:35.016Z,25.65
2023-03-09T11:00:15.624Z,25.65
2023-03-09T11:03:00.184Z,24.90
2023-03-09T11:05:32.584Z,24.80
2023-03-09T11:08:03.934Z,24.73
2023-03-09T11:10:36.950Z,24.02
2023-03-09T11:13:07.024Z,23.83
2023-03-09T11:15:42.024Z,26.70
2023-03-09T11:18:31.296Z,25.02
2023-03-09T11:23:50.699Z,22.92
2023-03-09T11:27:07.994Z,23.20
2023-03-09T11:30:15.882Z,24.60
2023-03-09T11:32:46.222Z,24.85
2023-03-09T11:35:19.300Z,23.92
2023-03-09T11:38:13.140Z,24.85
2023-03-09T11:40:48.171Z,22.67
2023-03-09T11:43:32.851Z,26.58
2023-03-09T11:46:15.991Z,24.88
2023-03-09T11:49:05.650Z,23.80
2023-03-09T11:51:47.361Z,25.65
2023-03-09T11:54:43.450Z,25.23
2023-03-09T11:57:21.928Z,26.15
2023-03-09T12:00:00.534Z,26.00
2023-03-09T12:03:16.352Z,23.63
2023-03-09T12:06:01.368Z,25.10
2023-03-09T12:08:44.586Z,24.52
2023-03-09T12:11:32.576Z,25.50
2023-03-09T12:14:23.437Z,24.27
2023-03-09T12:17:11.382Z,24.67
2023-03-09T12:19:53.104Z,25.17
2023-03-09T12:22:39.730Z,24.80
2023-03-09T12:25:23.228Z,24.35
2023-03-09T12:28:05.746Z,25.63
2023-03-09T12:30:55.943Z,26.02
2023-03-09T12:33:47.209Z,26.42
2023-03-09T12:36:43.144Z,24.65
2023-03-09T12:39:32.418Z,25.38
2023-03-09T12:45:05.752Z,25.17
2023-03-09T12:48:26.905Z,24.40
2023-03-09T12:51:11.658Z,25.30
2023-03-09T12:54:23.980Z,25.60
2023-03-09T12:56:56.251Z,24.42
2023-03-09T12:59:28.039Z,26.17
2023-03-09T13:01:59.271Z,26.00
2023-03-09T13:04:29.676Z,25.58
2023-03-09T13:07:02.951Z,25.17
2023-03-09T13:09:44.319Z,25.85
2023-03-09T13:12:33.921Z,26.27
2023-03-09T13:15:29.050Z,26.45
2023-03-09T13:18:28.608Z,26.90
2023-03-09T13:20:57.423Z,26.20
2023-03-09T13:23:28.200Z,27.08
2023-03-09T13:25:58.675Z,28.05
2023-03-09T13:28:40.559Z,26.55
2023-03-09T13:31:28.115Z,27.50
2023-03-09T13:34:00.288Z,25.48
2023-03-09T13:36:37.124Z,27.73
2023-03-09T13:39:23.179Z,26.42
2023-03-09T13:41:56.263Z,24.98
2023-03-09T13:44:28.319Z,26.48
2023-03-09T13:47:00.736Z,26.58
2023-03-09T13:49:38.813Z,25.33
2023-03-09T13:52:18.781Z,26.50
2023-03-09T13:55:01.554Z,26.70
2023-03-09T13:57:38.039Z,26.70
2023-03-09T14:00:23.804Z,25.67
2023-03-09T14:02:54.835Z,27.30
2023-03-09T14:06:29.938Z,27.80
2023-03-09T14:08:23.703Z,27.08
2023-03-09T14:10:54.120Z,28.10
2023-03-09T14:13:27.378Z,26.02
2023-03-09T14:15:57.503Z,26.50
2023-03-09T14:18:55.614Z,28.30
2023-03-09T14:21:34.124Z,26.10
2023-03-09T14:27:36.103Z,26.13
2023-03-09T14:30:44.222Z,26.92
2023-03-09T14:33:29.209Z,28.85
2023-03-09T14:36:57.075Z,30.65
2023-03-09T14:39:39.628Z,28.88
2023-03-09T14:42:28.957Z,27.52
2023-03-09T14:45:14.085Z,27.77
2023-03-09T14:47:42.049Z,29.70
2023-03-09T14:50:20.918Z,28.77
2023-03-09T14:52:49.642Z,30.63
2023-03-09T14:55:24.546Z,28.88
2023-03-09T14:57:54.855Z,29.73
2023-03-09T15:00:27.126Z,28.05
2023-03-09T15:02:55.396Z,27.52
2023-03-09T15:05:26.562Z,28.55
2023-03-09T15:07:55.400Z,29.33
2023-03-09T15:10:29.329Z,29.30
2023-03-09T15:12:58.250Z,28.85
2023-03-09T15:15:28.541Z,27.98
2023-03-09T15:17:58.511Z,28.83
2023-03-09T15:20:44.150Z,26.98
2023-03-09T15:23:14.704Z,28.70
2023-03-09T15:25:45.157Z,28.83
2023-03-09T15:28:16.227Z,29.02
2023-03-09T15:30:45.645Z,30.83
2023-03-09T15:33:15.522Z,27.73
2023-03-09T15:35:45.510Z,27.77
2023-03-09T15:38:15.211Z,28.38
2023-03-09T15:40:45.068Z,29.38
2023-03-09T15:43:14.878Z,30.60
2023-03-09T15:45:44.959Z,29.05
2023-03-09T15:48:15.072Z,30.00
2023-03-09T15:50:52.883Z,30.75
2023-03-09T15:53:22.942Z,29.70
2023-03-09T15:56:08.265Z,29.10
2023-03-09T15:58:39.281Z,29.23
2023-03-09T16:01:19.414Z,29.05
2023-03-09T16:03:53.120Z,29.55
2023-03-09T16:06:24.059Z,31.05
2023-03-09T16:08:53.424Z,31.15
2023-03-09T16:11:23.414Z,30.60
2023-03-09T16:13:53.484Z,32.10
2023-03-09T16:16:23.341Z,31.58
2023-03-09T16:18:54.937Z,29.77
2023-03-09T16:21:25.311Z,30.88
2023-03-09T16:23:55.112Z,32.63
2023-03-09T16:26:24.902Z,31.15
2023-03-09T16:28:55.273Z,31.02
2023-03-09T16:31:29.090Z,29.20
2023-03-09T16:33:57.373Z,30.73
2023-03-09T16:36:29.980Z,30.40
2023-03-09T16:39:02.004Z,31.13
2023-03-09T16:41:32.171Z,32.00
2023-03-09T16:44:02.072Z,29.90
2023-03-09T16:46:32.412Z,32.20
2023-03-09T16:49:02.371Z,32.55
2023-03-09T16:51:32.034Z,29.88
2023-03-09T16:54:00.586Z,31.98
2023-03-09T16:56:29.315Z,32.60
2023-03-09T16:58:57.303Z,30.75
2023-03-09T17:01:25.999Z,33.15
2023-03-09T17:03:54.182Z,33.08
2023-03-09T17:06:23.914Z,33.78
2023-03-09T17:08:54.185Z,33.35
2023-03-09T17:11:25.036Z,34.70
2023-03-09T17:13:55.377Z,34.05
2023-03-09T17:16:25.632Z,33.45
2023-03-09T17:18:59.137Z,34.00
2023-03-09T17:21:28.146Z,35.05
2023-03-09T17:23:57.633Z,34.65
2023-03-09T17:26:29.841Z,34.80
2023-03-09T17:29:00.188Z,33.63
2023-03-09T17:31:30.274Z,34.53
2023-03-09T17:34:00.983Z,35.63
2023-03-09T17:36:31.143Z,35.83
2023-03-09T17:39:01.102Z,32.75
2023-03-09T17:41:31.091Z,34.85
2023-03-09T17:44:01.306Z,33.75
2023-03-09T17:46:31.729Z,34.03
2023-03-09T17:49:02.835Z,33.40
2023-03-09T17:51:31.478Z,35.00
2023-03-09T17:54:01.385Z,36.35
2023-03-09T17:56:31.196Z,35.10
2023-03-09T17:59:01.124Z,36.17
2023-03-09T18:01:31.612Z,35.00
2023-03-09T18:04:01.369Z,32.72
2023-03-09T18:06:35.867Z,35.00
2023-03-09T18:09:05.358Z,35.15
2023-03-09T18:11:36.537Z,35.15
2023-03-09T18:14:07.961Z,34.35
2023-03-09T18:16:37.288Z,34.40
2023-03-09T18:19:04.837Z,34.30
2023-03-09T18:21:37.693Z,34.63
2023-03-09T18:24:08.554Z,36.03
2023-03-09T18:26:41.183Z,37.05
2023-03-09T18:29:08.783Z,35.80
2023-03-09T18:31:36.507Z,32.42
2023-03-09T18:34:07.708Z,32.13
2023-03-09T18:36:37.119Z,34.95
2023-03-09T18:39:09.141Z,35.20
2023-03-09T18:41:38.594Z,34.40
2023-03-09T18:44:08.682Z,33.78
2023-03-09T18:46:38.817Z,34.08
2023-03-09T18:49:08.722Z,34.80
2023-03-09T18:51:38.479Z,36.08
2023-03-09T18:54:09.625Z,32.35
2023-03-09T18:56:40.519Z,35.38
2023-03-09T18:59:13.572Z,43.05
2023-03-09T19:01:43.259Z,39.38
2023-03-09T19:04:14.638Z,35.72
2023-03-09T19:06:44.894Z,33.00
2023-03-09T19:09:13.168Z,36.03
2023-03-09T19:11:41.947Z,34.13
2023-03-09T19:14:11.016Z,34.60
2023-03-09T19:16:38.717Z,34.88
2023-03-09T19:19:07.037Z,33.33
2023-03-09T19:21:35.330Z,36.40
2023-03-09T19:24:06.046Z,34.08
2023-03-09T19:26:36.144Z,34.05
2023-03-09T19:29:07.111Z,33.22
2023-03-09T19:31:38.831Z,32.63
2023-03-09T19:34:10.130Z,34.38
2023-03-09T19:36:37.955Z,36.38
2023-03-09T19:39:07.968Z,35.08
2023-03-09T19:41:38.273Z,35.58
2023-03-09T19:44:09.521Z,34.45
2023-03-09T19:46:38.870Z,35.35
2023-03-09T19:49:08.655Z,34.63
2023-03-09T19:51:38.968Z,33.70
2023-03-09T19:54:14.537Z,31.23
2023-03-09T19:56:43.335Z,33.85
2023-03-09T19:59:17.040Z,33.60
2023-03-09T20:01:50.422Z,31.65
2023-03-09T20:04:24.243Z,32.05
2023-03-09T20:06:57.395Z,35.60
2023-03-09T20:09:29.089Z,33.88
2023-03-09T20:11:59.215Z,34.33
2023-03-09T20:14:29.649Z,36.13
2023-03-09T20:17:00.057Z,36.38
2023-03-09T20:19:31.727Z,36.55
2023-03-09T20:22:03.325Z,38.33
2023-03-09T20:24:33.302Z,38.45
2023-03-09T20:27:03.261Z,35.78
2023-03-09T20:29:32.980Z,35.10
2023-03-09T20:32:04.468Z,34.30
2023-03-09T20:34:34.071Z,36.17
2023-03-09T20:37:04.037Z,34.53
2023-03-09T20:39:33.792Z,34.85
2023-03-09T20:42:04.770Z,34.38
2023-03-09T20:44:34.924Z,34.30
2023-03-09T20:47:04.938Z,34.45
2023-03-09T20:49:34.931Z,31.00
2023-03-09T20:52:05.243Z,32.38
2023-03-09T20:54:35.251Z,31.50
2023-03-09T20:57:05.114Z,32.53
2023-03-09T20:59:35.108Z,31.95
2023-03-09T21:02:04.941Z,31.38
2023-03-09T21:04:40.322Z,31.45
2023-03-09T21:07:12.725Z,30.13
2023-03-09T21:09:43.312Z,31.30
2023-03-09T21:12:17.933Z,28.67
2023-03-09T21:14:45.170Z,29.48
2023-03-09T21:17:15.158Z,28.48
2023-03-09T21:19:44.868Z,29.15
2023-03-09T21:22:15.479Z,29.70
2023-03-09T21:24:54.001Z,30.02
2023-03-09T21:27:24.264Z,27.42
2023-03-09T21:29:52.103Z,28.65
2023-03-09T21:32:22.319Z,28.70
2023-03-09T21:34:53.263Z,26.02
2023-03-09T21:37:22.768Z,26.98
2023-03-09T21:39:54.925Z,23.75
2023-03-09T21:42:27.235Z,25.20
2023-03-09T21:44:56.850Z,25.08
2023-03-09T21:47:24.808Z,26.55
2023-03-09T21:49:53.171Z,26.08
2023-03-09T21:52:21.590Z,25.05
2023-03-09T21:54:50.458Z,27.35
2023-03-09T21:57:18.711Z,27.70
2023-03-09T21:59:46.976Z,25.73
2023-03-09T22:02:19.503Z,25.75
2023-03-09T22:04:49.809Z,26.65
2023-03-09T22:07:19.524Z,26.02
2023-03-09T22:09:50.304Z,25.58
2023-03-09T22:12:19.153Z,28.27
2023-03-09T22:14:52.895Z,24.02
2023-03-09T22:17:23.076Z,24.73
2023-03-09T22:19:59.021Z,24.80
2023-03-09T22:22:28.074Z,26.50
2023-03-09T22:24:57.942Z,23.98
2023-03-09T22:27:32.235Z,26.20
2023-03-09T22:30:02.037Z,24.13
2023-03-09T22:32:31.995Z,23.35
2023-03-09T22:35:01.514Z,23.48
2023-03-09T22:37:31.545Z,23.60
2023-03-09T22:40:08.958Z,24.95
2023-03-09T22:42:39.294Z,23.27
2023-03-09T22:45:11.701Z,26.25
2023-03-09T22:47:40.968Z,24.73
2023-03-09T22:50:12.781Z,26.73
2023-03-09T22:52:41.090Z,26.42
2023-03-09T22:55:12.438Z,26.30
2023-03-09T22:57:43.160Z,26.45
2023-03-09T23:00:18.400Z,26.42
2023-03-09T23:02:48.166Z,26.85
2023-03-09T23:05:18.069Z,25.58
2023-03-09T23:07:45.207Z,27.95
2023-03-09T23:10:15.069Z,25.60
2023-03-09T23:12:44.801Z,26.40
2023-03-09T23:15:15.252Z,25.27
2023-03-09T23:17:44.658Z,26.25
2023-03-09T23:20:16.370Z,26.00
2023-03-09T23:22:46.722Z,25.10
2023-03-09T23:25:17.193Z,23.38
2023-03-09T23:27:46.665Z,24.30
2023-03-09T23:30:18.040Z,21.92
2023-03-09T23:32:48.103Z,23.48
2023-03-09T23:35:17.882Z,22.80
2023-03-09T23:37:47.913Z,22.48
2023-03-09T23:40:22.988Z,20.85
2023-03-09T23:42:52.953Z,22.30
2023-03-09T23:45:23.062Z,20.45
2023-03-09T23:47:52.851Z,21.58
2023-03-09T23:50:22.832Z,20.33
2023-03-09T23:52:52.675Z,19.88
2023-03-09T23:55:22.396Z,19.13
2023-03-09T23:57:52.149Z,19.13
